sensor_id;sensor_type;location;lat;lon;timestamp;temperature;humidity
86008;SHT30;76587;41.936;25.550;2024-03-08T00:01:53;6.60;86.77
86008;SHT30;76587;41.936;25.550;2024-03-08T00:04:18;6.60;86.88
86008;SHT30;76587;41.936;25.550;2024-03-08T00:06:44;6.64;86.54
86008;SHT30;76587;41.936;25.550;2024-03-08T00:09:11;6.57;86.72
86008;SHT30;76587;41.936;25.550;2024-03-08T00:11:37;6.67;86.26
86008;SHT30;76587;41.936;25.550;2024-03-08T00:14:03;6.70;86.06
86008;SHT30;76587;41.936;25.550;2024-03-08T00:16:32;6.69;86.00
86008;SHT30;76587;41.936;25.550;2024-03-08T00:18:58;6.73;85.99
86008;SHT30;76587;41.936;25.550;2024-03-08T00:21:24;6.69;86.49
86008;SHT30;76587;41.936;25.550;2024-03-08T00:23:49;6.74;85.93
86008;SHT30;76587;41.936;25.550;2024-03-08T00:26:15;6.69;86.05
86008;SHT30;76587;41.936;25.550;2024-03-08T00:28:40;6.80;86.44
86008;SHT30;76587;41.936;25.550;2024-03-08T00:31:06;6.84;86.61
86008;SHT30;76587;41.936;25.550;2024-03-08T00:33:32;6.80;86.43
86008;SHT30;76587;41.936;25.550;2024-03-08T00:35:57;6.77;86.91
86008;SHT30;76587;41.936;25.550;2024-03-08T00:38:23;6.70;86.96
86008;SHT30;76587;41.936;25.550;2024-03-08T00:40:48;6.77;86.73
86008;SHT30;76587;41.936;25.550;2024-03-08T00:43:14;6.73;86.86
86008;SHT30;76587;41.936;25.550;2024-03-08T00:45:41;6.80;86.25
86008;SHT30;76587;41.936;25.550;2024-03-08T00:48:08;6.85;86.16
86008;SHT30;76587;41.936;25.550;2024-03-08T00:50:34;6.93;85.00
86008;SHT30;76587;41.936;25.550;2024-03-08T00:52:59;6.88;84.95
86008;SHT30;76587;41.936;25.550;2024-03-08T00:55:25;6.88;85.04
86008;SHT30;76587;41.936;25.550;2024-03-08T00:57:51;6.79;85.97
86008;SHT30;76587;41.936;25.550;2024-03-08T01:00:19;6.79;86.19
86008;SHT30;76587;41.936;25.550;2024-03-08T01:02:45;6.85;85.53
86008;SHT30;76587;41.936;25.550;2024-03-08T01:05:11;6.81;85.44
86008;SHT30;76587;41.936;25.550;2024-03-08T01:07:36;6.83;85.03
86008;SHT30;76587;41.936;25.550;2024-03-08T01:10:03;6.80;85.54
86008;SHT30;76587;41.936;25.550;2024-03-08T01:12:29;6.76;86.12
86008;SHT30;76587;41.936;25.550;2024-03-08T01:14:55;6.69;86.09
86008;SHT30;76587;41.936;25.550;2024-03-08T01:17:21;6.67;86.22
86008;SHT30;76587;41.936;25.550;2024-03-08T01:19:46;6.64;85.99
86008;SHT30;76587;41.936;25.550;2024-03-08T01:22:12;6.61;86.15
86008;SHT30;76587;41.936;25.550;2024-03-08T01:24:38;6.49;86.86
86008;SHT30;76587;41.936;25.550;2024-03-08T01:27:04;6.51;87.12
86008;SHT30;76587;41.936;25.550;2024-03-08T01:29:29;6.47;87.42
86008;SHT30;76587;41.936;25.550;2024-03-08T01:31:55;6.51;87.55
86008;SHT30;76587;41.936;25.550;2024-03-08T01:34:24;6.57;87.46
86008;SHT30;76587;41.936;25.550;2024-03-08T01:36:49;6.58;87.22
86008;SHT30;76587;41.936;25.550;2024-03-08T01:39:15;6.61;86.87
86008;SHT30;76587;41.936;25.550;2024-03-08T01:41:40;6.63;86.59
86008;SHT30;76587;41.936;25.550;2024-03-08T01:44:06;6.56;86.69
86008;SHT30;76587;41.936;25.550;2024-03-08T01:46:34;6.54;86.76
86008;SHT30;76587;41.936;25.550;2024-03-08T01:49:01;6.49;86.94
86008;SHT30;76587;41.936;25.550;2024-03-08T01:51:28;6.43;87.59
86008;SHT30;76587;41.936;25.550;2024-03-08T01:53:54;6.32;87.66
86008;SHT30;76587;41.936;25.550;2024-03-08T01:56:21;6.33;87.63
86008;SHT30;76587;41.936;25.550;2024-03-08T01:58:46;6.34;87.19
86008;SHT30;76587;41.936;25.550;2024-03-08T02:01:12;6.26;87.58
86008;SHT30;76587;41.936;25.550;2024-03-08T02:03:41;6.26;87.61
86008;SHT30;76587;41.936;25.550;2024-03-08T02:06:09;6.22;87.77
86008;SHT30;76587;41.936;25.550;2024-03-08T02:08:36;6.29;87.33
86008;SHT30;76587;41.936;25.550;2024-03-08T02:11:02;6.28;87.57
86008;SHT30;76587;41.936;25.550;2024-03-08T02:13:29;6.25;87.64
86008;SHT30;76587;41.936;25.550;2024-03-08T02:15:55;6.23;87.94
86008;SHT30;76587;41.936;25.550;2024-03-08T02:18:22;6.28;87.55
86008;SHT30;76587;41.936;25.550;2024-03-08T02:20:52;6.29;87.40
86008;SHT30;76587;41.936;25.550;2024-03-08T02:23:21;6.30;87.41
86008;SHT30;76587;41.936;25.550;2024-03-08T02:25:47;6.30;87.96
86008;SHT30;76587;41.936;25.550;2024-03-08T02:28:13;6.25;88.02
86008;SHT30;76587;41.936;25.550;2024-03-08T02:30:39;6.29;88.11
86008;SHT30;76587;41.936;25.550;2024-03-08T02:33:06;6.30;87.95
86008;SHT30;76587;41.936;25.550;2024-03-08T02:35:32;6.25;88.24
86008;SHT30;76587;41.936;25.550;2024-03-08T02:38:01;6.26;88.44
86008;SHT30;76587;41.936;25.550;2024-03-08T02:40:27;6.26;88.39
86008;SHT30;76587;41.936;25.550;2024-03-08T02:42:52;6.34;88.05
86008;SHT30;76587;41.936;25.550;2024-03-08T02:45:18;6.32;87.89
86008;SHT30;76587;41.936;25.550;2024-03-08T02:47:43;6.32;87.81
86008;SHT30;76587;41.936;25.550;2024-03-08T02:50:09;6.36;88.05
86008;SHT30;76587;41.936;25.550;2024-03-08T02:52:35;6.37;87.92
86008;SHT30;76587;41.936;25.550;2024-03-08T02:55:03;6.34;87.99
86008;SHT30;76587;41.936;25.550;2024-03-08T02:57:31;6.33;87.96
86008;SHT30;76587;41.936;25.550;2024-03-08T02:59:57;6.33;88.23
86008;SHT30;76587;41.936;25.550;2024-03-08T03:02:25;6.36;88.08
86008;SHT30;76587;41.936;25.550;2024-03-08T03:04:52;6.36;88.32
86008;SHT30;76587;41.936;25.550;2024-03-08T03:07:17;6.37;88.39
86008;SHT30;76587;41.936;25.550;2024-03-08T03:09:43;6.44;87.84
86008;SHT30;76587;41.936;25.550;2024-03-08T03:12:08;6.43;87.98
86008;SHT30;76587;41.936;25.550;2024-03-08T03:14:36;6.46;87.81
86008;SHT30;76587;41.936;25.550;2024-03-08T03:17:05;6.43;88.15
86008;SHT30;76587;41.936;25.550;2024-03-08T03:19:30;6.41;88.19
86008;SHT30;76587;41.936;25.550;2024-03-08T03:21:56;6.43;88.39
86008;SHT30;76587;41.936;25.550;2024-03-08T03:24:22;6.43;88.08
86008;SHT30;76587;41.936;25.550;2024-03-08T03:26:49;6.39;88.23
86008;SHT30;76587;41.936;25.550;2024-03-08T03:29:15;6.34;88.63
86008;SHT30;76587;41.936;25.550;2024-03-08T03:31:42;6.32;88.86
86008;SHT30;76587;41.936;25.550;2024-03-08T03:34:11;6.33;88.90
86008;SHT30;76587;41.936;25.550;2024-03-08T03:36:37;6.32;88.59
86008;SHT30;76587;41.936;25.550;2024-03-08T03:39:07;6.23;88.71
86008;SHT30;76587;41.936;25.550;2024-03-08T03:41:38;6.28;88.84
86008;SHT30;76587;41.936;25.550;2024-03-08T03:44:04;6.22;89.08
86008;SHT30;76587;41.936;25.550;2024-03-08T03:46:32;6.22;89.23
86008;SHT30;76587;41.936;25.550;2024-03-08T03:48:58;6.25;89.21
86008;SHT30;76587;41.936;25.550;2024-03-08T03:51:24;6.20;89.71
86008;SHT30;76587;41.936;25.550;2024-03-08T03:53:49;6.18;89.70
86008;SHT30;76587;41.936;25.550;2024-03-08T03:56:15;6.15;89.53
86008;SHT30;76587;41.936;25.550;2024-03-08T03:58:40;6.15;89.36
86008;SHT30;76587;41.936;25.550;2024-03-08T04:01:06;6.15;89.37
86008;SHT30;76587;41.936;25.550;2024-03-08T04:03:31;6.18;89.20
86008;SHT30;76587;41.936;25.550;2024-03-08T04:05:57;6.15;89.28
86008;SHT30;76587;41.936;25.550;2024-03-08T04:08:22;6.16;89.28
86008;SHT30;76587;41.936;25.550;2024-03-08T04:10:50;6.12;89.07
86008;SHT30;76587;41.936;25.550;2024-03-08T04:13:16;6.10;89.06
86008;SHT30;76587;41.936;25.550;2024-03-08T04:15:41;6.09;88.82
86008;SHT30;76587;41.936;25.550;2024-03-08T04:18:09;6.05;89.11
86008;SHT30;76587;41.936;25.550;2024-03-08T04:20:35;6.06;88.68
86008;SHT30;76587;41.936;25.550;2024-03-08T04:23:01;6.05;88.42
86008;SHT30;76587;41.936;25.550;2024-03-08T04:25:26;6.03;88.48
86008;SHT30;76587;41.936;25.550;2024-03-08T04:27:52;6.08;88.49
86008;SHT30;76587;41.936;25.550;2024-03-08T04:30:18;6.05;88.18
86008;SHT30;76587;41.936;25.550;2024-03-08T04:32:43;6.02;88.06
86008;SHT30;76587;41.936;25.550;2024-03-08T04:35:09;5.95;88.64
86008;SHT30;76587;41.936;25.550;2024-03-08T04:37:34;6.01;88.17
86008;SHT30;76587;41.936;25.550;2024-03-08T04:40:00;5.98;87.77
86008;SHT30;76587;41.936;25.550;2024-03-08T04:42:28;5.94;87.60
86008;SHT30;76587;41.936;25.550;2024-03-08T04:44:55;5.95;87.55
86008;SHT30;76587;41.936;25.550;2024-03-08T04:47:20;5.86;87.66
86008;SHT30;76587;41.936;25.550;2024-03-08T04:49:46;5.84;87.76
86008;SHT30;76587;41.936;25.550;2024-03-08T04:52:12;5.84;87.53
86008;SHT30;76587;41.936;25.550;2024-03-08T04:54:37;5.82;87.64
86008;SHT30;76587;41.936;25.550;2024-03-08T04:57:03;5.78;88.00
86008;SHT30;76587;41.936;25.550;2024-03-08T04:59:30;5.84;87.57
86008;SHT30;76587;41.936;25.550;2024-03-08T05:01:55;5.86;87.48
86008;SHT30;76587;41.936;25.550;2024-03-08T05:04:21;5.86;87.48
86008;SHT30;76587;41.936;25.550;2024-03-08T05:06:48;5.82;87.57
86008;SHT30;76587;41.936;25.550;2024-03-08T05:09:13;5.88;87.44
86008;SHT30;76587;41.936;25.550;2024-03-08T05:11:40;5.86;87.40
86008;SHT30;76587;41.936;25.550;2024-03-08T05:14:06;5.81;87.86
86008;SHT30;76587;41.936;25.550;2024-03-08T05:16:31;5.82;87.99
86008;SHT30;76587;41.936;25.550;2024-03-08T05:18:56;5.95;87.06
86008;SHT30;76587;41.936;25.550;2024-03-08T05:21:22;5.99;86.57
86008;SHT30;76587;41.936;25.550;2024-03-08T05:23:49;5.95;86.60
86008;SHT30;76587;41.936;25.550;2024-03-08T05:26:16;5.99;86.25
86008;SHT30;76587;41.936;25.550;2024-03-08T05:28:42;5.99;86.05
86008;SHT30;76587;41.936;25.550;2024-03-08T05:31:08;6.01;85.90
86008;SHT30;76587;41.936;25.550;2024-03-08T05:33:33;6.01;85.89
86008;SHT30;76587;41.936;25.550;2024-03-08T05:36:02;6.03;85.29
86008;SHT30;76587;41.936;25.550;2024-03-08T05:38:29;6.01;85.28
86008;SHT30;76587;41.936;25.550;2024-03-08T05:40:54;6.05;85.34
86008;SHT30;76587;41.936;25.550;2024-03-08T05:43:20;6.10;85.21
86008;SHT30;76587;41.936;25.550;2024-03-08T05:45:46;6.13;85.01
86008;SHT30;76587;41.936;25.550;2024-03-08T05:48:13;6.10;84.69
86008;SHT30;76587;41.936;25.550;2024-03-08T05:50:38;6.12;84.86
86008;SHT30;76587;41.936;25.550;2024-03-08T05:53:04;6.20;83.82
86008;SHT30;76587;41.936;25.550;2024-03-08T05:55:33;6.15;84.04
86008;SHT30;76587;41.936;25.550;2024-03-08T05:58:01;6.15;84.46
86008;SHT30;76587;41.936;25.550;2024-03-08T06:00:27;6.13;84.34
86008;SHT30;76587;41.936;25.550;2024-03-08T06:02:52;6.10;85.00
86008;SHT30;76587;41.936;25.550;2024-03-08T06:05:19;6.18;85.03
86008;SHT30;76587;41.936;25.550;2024-03-08T06:07:44;6.25;84.52
86008;SHT30;76587;41.936;25.550;2024-03-08T06:10:11;6.30;84.46
86008;SHT30;76587;41.936;25.550;2024-03-08T06:12:39;6.39;84.25
86008;SHT30;76587;41.936;25.550;2024-03-08T06:15:09;6.47;83.45
86008;SHT30;76587;41.936;25.550;2024-03-08T06:17:38;6.56;82.76
86008;SHT30;76587;41.936;25.550;2024-03-08T06:20:04;6.58;82.62
86008;SHT30;76587;41.936;25.550;2024-03-08T06:22:38;6.57;82.08
86008;SHT30;76587;41.936;25.550;2024-03-08T06:25:06;6.47;82.68
86008;SHT30;76587;41.936;25.550;2024-03-08T06:27:32;6.54;82.37
86008;SHT30;76587;41.936;25.550;2024-03-08T06:30:02;6.43;83.50
86008;SHT30;76587;41.936;25.550;2024-03-08T06:32:30;6.49;83.90
86008;SHT30;76587;41.936;25.550;2024-03-08T06:34:55;6.51;83.62
86008;SHT30;76587;41.936;25.550;2024-03-08T06:37:21;6.63;82.76
86008;SHT30;76587;41.936;25.550;2024-03-08T06:39:49;6.69;82.88
86008;SHT30;76587;41.936;25.550;2024-03-08T06:42:16;6.73;83.16
86008;SHT30;76587;41.936;25.550;2024-03-08T06:44:42;6.83;82.48
86008;SHT30;76587;41.936;25.550;2024-03-08T06:47:14;6.88;81.91
86008;SHT30;76587;41.936;25.550;2024-03-08T06:49:41;6.94;81.23
86008;SHT30;76587;41.936;25.550;2024-03-08T06:52:07;7.03;80.54
86008;SHT30;76587;41.936;25.550;2024-03-08T06:54:34;6.98;80.24
86008;SHT30;76587;41.936;25.550;2024-03-08T06:57:04;6.93;79.77
86008;SHT30;76587;41.936;25.550;2024-03-08T06:59:33;6.87;79.77
86008;SHT30;76587;41.936;25.550;2024-03-08T07:02:19;6.93;80.15
86008;SHT30;76587;41.936;25.550;2024-03-08T07:04:44;6.93;79.88
86008;SHT30;76587;41.936;25.550;2024-03-08T07:07:10;6.94;79.77
86008;SHT30;76587;41.936;25.550;2024-03-08T07:09:36;6.90;80.32
86008;SHT30;76587;41.936;25.550;2024-03-08T07:12:02;6.76;80.76
86008;SHT30;76587;41.936;25.550;2024-03-08T07:14:27;6.77;80.01
86008;SHT30;76587;41.936;25.550;2024-03-08T07:16:54;6.80;80.59
86008;SHT30;76587;41.936;25.550;2024-03-08T07:19:19;6.79;80.25
86008;SHT30;76587;41.936;25.550;2024-03-08T07:21:45;6.81;80.72
86008;SHT30;76587;41.936;25.550;2024-03-08T07:24:11;6.80;81.46
86008;SHT30;76587;41.936;25.550;2024-03-08T07:26:45;6.73;82.26
86008;SHT30;76587;41.936;25.550;2024-03-08T07:29:17;6.74;81.74
86008;SHT30;76587;41.936;25.550;2024-03-08T07:31:42;6.73;82.08
86008;SHT30;76587;41.936;25.550;2024-03-08T07:34:27;6.66;83.02
86008;SHT30;76587;41.936;25.550;2024-03-08T07:36:52;6.66;83.24
86008;SHT30;76587;41.936;25.550;2024-03-08T07:39:18;6.71;82.01
86008;SHT30;76587;41.936;25.550;2024-03-08T07:41:44;6.80;81.86
86008;SHT30;76587;41.936;25.550;2024-03-08T07:44:09;6.81;80.72
86008;SHT30;76587;41.936;25.550;2024-03-08T07:46:35;6.73;81.54
86008;SHT30;76587;41.936;25.550;2024-03-08T07:49:02;6.77;81.11
86008;SHT30;76587;41.936;25.550;2024-03-08T07:51:28;6.93;80.15
86008;SHT30;76587;41.936;25.550;2024-03-08T07:53:53;7.03;79.82
86008;SHT30;76587;41.936;25.550;2024-03-08T07:56:20;7.03;79.88
86008;SHT30;76587;41.936;25.550;2024-03-08T07:58:47;6.97;80.49
86008;SHT30;76587;41.936;25.550;2024-03-08T08:01:17;6.84;80.47
86008;SHT30;76587;41.936;25.550;2024-03-08T08:03:43;6.94;81.58
86008;SHT30;76587;41.936;25.550;2024-03-08T08:06:08;6.94;80.86
86008;SHT30;76587;41.936;25.550;2024-03-08T08:08:35;7.04;81.12
86008;SHT30;76587;41.936;25.550;2024-03-08T08:11:01;7.04;81.79
86008;SHT30;76587;41.936;25.550;2024-03-08T08:13:27;7.07;81.28
86008;SHT30;76587;41.936;25.550;2024-03-08T08:15:57;7.03;81.52
86008;SHT30;76587;41.936;25.550;2024-03-08T08:18:23;7.00;81.63
86008;SHT30;76587;41.936;25.550;2024-03-08T08:20:50;6.97;82.37
86008;SHT30;76587;41.936;25.550;2024-03-08T08:23:16;6.98;81.52
86008;SHT30;76587;41.936;25.550;2024-03-08T08:25:41;7.04;80.83
86008;SHT30;76587;41.936;25.550;2024-03-08T08:28:07;7.15;80.24
86008;SHT30;76587;41.936;25.550;2024-03-08T08:30:32;7.11;80.35
86008;SHT30;76587;41.936;25.550;2024-03-08T08:32:58;7.08;80.35
86008;SHT30;76587;41.936;25.550;2024-03-08T08:35:26;7.12;80.61
86008;SHT30;76587;41.936;25.550;2024-03-08T08:37:51;7.11;81.86
86008;SHT30;76587;41.936;25.550;2024-03-08T08:40:17;7.18;81.35
86008;SHT30;76587;41.936;25.550;2024-03-08T08:42:44;7.21;81.40
86008;SHT30;76587;41.936;25.550;2024-03-08T08:45:11;7.21;80.87
86008;SHT30;76587;41.936;25.550;2024-03-08T08:47:36;7.18;80.14
86008;SHT30;76587;41.936;25.550;2024-03-08T08:50:02;7.21;80.92
86008;SHT30;76587;41.936;25.550;2024-03-08T08:52:30;7.32;80.31
86008;SHT30;76587;41.936;25.550;2024-03-08T08:54:55;7.38;80.07
86008;SHT30;76587;41.936;25.550;2024-03-08T08:57:21;7.32;79.61
86008;SHT30;76587;41.936;25.550;2024-03-08T08:59:47;7.28;80.39
86008;SHT30;76587;41.936;25.550;2024-03-08T09:02:13;7.25;80.97
86008;SHT30;76587;41.936;25.550;2024-03-08T09:04:39;7.28;81.37
86008;SHT30;76587;41.936;25.550;2024-03-08T09:07:05;7.31;81.32
86008;SHT30;76587;41.936;25.550;2024-03-08T09:09:32;7.38;81.76
86008;SHT30;76587;41.936;25.550;2024-03-08T09:11:58;7.44;80.88
86008;SHT30;76587;41.936;25.550;2024-03-08T09:14:23;7.44;81.38
86008;SHT30;76587;41.936;25.550;2024-03-08T09:16:51;7.49;81.32
86008;SHT30;76587;41.936;25.550;2024-03-08T09:19:16;7.49;82.58
86008;SHT30;76587;41.936;25.550;2024-03-08T09:21:42;7.56;82.13
86008;SHT30;76587;41.936;25.550;2024-03-08T09:24:08;7.61;80.85
86008;SHT30;76587;41.936;25.550;2024-03-08T09:26:33;7.68;80.08
86008;SHT30;76587;41.936;25.550;2024-03-08T09:28:59;7.76;79.86
86008;SHT30;76587;41.936;25.550;2024-03-08T09:31:25;7.79;80.89
86008;SHT30;76587;41.936;25.550;2024-03-08T09:33:51;7.87;80.28
86008;SHT30;76587;41.936;25.550;2024-03-08T09:36:17;7.87;81.33
86008;SHT30;76587;41.936;25.550;2024-03-08T09:38:42;7.81;81.75
86008;SHT30;76587;41.936;25.550;2024-03-08T09:41:08;7.89;79.98
86008;SHT30;76587;41.936;25.550;2024-03-08T09:43:35;7.99;81.47
86008;SHT30;76587;41.936;25.550;2024-03-08T09:46:02;7.99;80.29
86008;SHT30;76587;41.936;25.550;2024-03-08T09:48:29;8.05;80.27
86008;SHT30;76587;41.936;25.550;2024-03-08T09:50:54;8.33;79.03
86008;SHT30;76587;41.936;25.550;2024-03-08T09:53:21;8.38;79.25
86008;SHT30;76587;41.936;25.550;2024-03-08T09:55:48;8.53;78.41
86008;SHT30;76587;41.936;25.550;2024-03-08T09:58:15;8.72;77.10
86008;SHT30;76587;41.936;25.550;2024-03-08T10:00:43;8.94;76.44
86008;SHT30;76587;41.936;25.550;2024-03-08T10:03:08;9.00;76.12
86008;SHT30;76587;41.936;25.550;2024-03-08T10:05:34;9.11;76.02
86008;SHT30;76587;41.936;25.550;2024-03-08T10:08:00;9.12;75.50
86008;SHT30;76587;41.936;25.550;2024-03-08T10:10:25;9.19;74.30
86008;SHT30;76587;41.936;25.550;2024-03-08T10:12:51;9.22;74.32
86008;SHT30;76587;41.936;25.550;2024-03-08T10:15:17;9.24;74.54
86008;SHT30;76587;41.936;25.550;2024-03-08T10:17:43;9.29;74.35
86008;SHT30;76587;41.936;25.550;2024-03-08T10:20:16;9.53;71.45
86008;SHT30;76587;41.936;25.550;2024-03-08T10:22:42;9.78;71.51
86008;SHT30;76587;41.936;25.550;2024-03-08T10:25:13;9.79;72.75
86008;SHT30;76587;41.936;25.550;2024-03-08T10:27:39;9.83;71.02
86008;SHT30;76587;41.936;25.550;2024-03-08T10:30:10;10.07;69.67
86008;SHT30;76587;41.936;25.550;2024-03-08T10:32:37;10.07;70.16
86008;SHT30;76587;41.936;25.550;2024-03-08T10:35:03;10.16;68.82
86008;SHT30;76587;41.936;25.550;2024-03-08T10:37:29;9.99;71.00
86008;SHT30;76587;41.936;25.550;2024-03-08T10:40:04;9.99;70.69
86008;SHT30;76587;41.936;25.550;2024-03-08T10:42:40;10.07;70.32
86008;SHT30;76587;41.936;25.550;2024-03-08T10:47:57;10.04;70.93
86008;SHT30;76587;41.936;25.550;2024-03-08T10:50:25;10.20;69.96
86008;SHT30;76587;41.936;25.550;2024-03-08T10:52:52;10.54;67.95
86008;SHT30;76587;41.936;25.550;2024-03-08T10:55:19;10.72;67.78
86008;SHT30;76587;41.936;25.550;2024-03-08T10:57:46;11.19;65.90
86008;SHT30;76587;41.936;25.550;2024-03-08T11:00:13;11.75;62.75
86008;SHT30;76587;41.936;25.550;2024-03-08T11:02:43;12.34;61.16
86008;SHT30;76587;41.936;25.550;2024-03-08T11:05:41;12.67;59.70
86008;SHT30;76587;41.936;25.550;2024-03-08T11:08:20;12.57;60.54
86008;SHT30;76587;41.936;25.550;2024-03-08T11:10:52;12.75;59.56
86008;SHT30;76587;41.936;25.550;2024-03-08T11:13:35;12.99;58.64
86008;SHT30;76587;41.936;25.550;2024-03-08T11:16:01;12.80;59.30
86008;SHT30;76587;41.936;25.550;2024-03-08T11:18:33;12.28;62.05
86008;SHT30;76587;41.936;25.550;2024-03-08T11:21:02;12.07;62.20
86008;SHT30;76587;41.936;25.550;2024-03-08T11:23:32;11.96;60.46
86008;SHT30;76587;41.936;25.550;2024-03-08T11:25:59;12.03;60.33
86008;SHT30;76587;41.936;25.550;2024-03-08T11:28:24;11.82;61.59
86008;SHT30;76587;41.936;25.550;2024-03-08T11:33:27;11.66;60.34
86008;SHT30;76587;41.936;25.550;2024-03-08T11:36:19;11.55;61.11
86008;SHT30;76587;41.936;25.550;2024-03-08T11:41:09;11.11;63.68
86008;SHT30;76587;41.936;25.550;2024-03-08T11:43:42;11.16;62.71
86008;SHT30;76587;41.936;25.550;2024-03-08T11:46:11;11.19;62.30
86008;SHT30;76587;41.936;25.550;2024-03-08T11:48:41;11.19;61.57
86008;SHT30;76587;41.936;25.550;2024-03-08T11:51:12;11.12;63.31
86008;SHT30;76587;41.936;25.550;2024-03-08T11:53:39;11.02;62.13
86008;SHT30;76587;41.936;25.550;2024-03-08T11:56:09;11.12;62.16
86008;SHT30;76587;41.936;25.550;2024-03-08T11:58:36;11.21;61.10
86008;SHT30;76587;41.936;25.550;2024-03-08T12:01:09;11.36;61.86
86008;SHT30;76587;41.936;25.550;2024-03-08T12:03:40;11.33;62.63
86008;SHT30;76587;41.936;25.550;2024-03-08T12:06:08;11.33;62.24
86008;SHT30;76587;41.936;25.550;2024-03-08T12:08:35;11.39;63.60
86008;SHT30;76587;41.936;25.550;2024-03-08T12:11:00;11.56;63.30
86008;SHT30;76587;41.936;25.550;2024-03-08T12:13:35;11.63;63.08
86008;SHT30;76587;41.936;25.550;2024-03-08T12:16:02;11.59;62.18
86008;SHT30;76587;41.936;25.550;2024-03-08T12:18:33;11.73;61.25
86008;SHT30;76587;41.936;25.550;2024-03-08T12:21:09;11.72;62.60
86008;SHT30;76587;41.936;25.550;2024-03-08T12:23:47;11.80;61.84
86008;SHT30;76587;41.936;25.550;2024-03-08T12:26:25;11.49;61.89
86008;SHT30;76587;41.936;25.550;2024-03-08T12:28:51;11.28;63.98
86008;SHT30;76587;41.936;25.550;2024-03-08T12:31:17;11.15;64.28
86008;SHT30;76587;41.936;25.550;2024-03-08T12:33:52;10.98;65.67
86008;SHT30;76587;41.936;25.550;2024-03-08T12:36:19;10.92;65.18
86008;SHT30;76587;41.936;25.550;2024-03-08T12:38:48;10.88;65.14
86008;SHT30;76587;41.936;25.550;2024-03-08T12:41:18;10.89;63.71
86008;SHT30;76587;41.936;25.550;2024-03-08T12:43:45;10.89;63.45
86008;SHT30;76587;41.936;25.550;2024-03-08T12:46:17;10.85;65.41
86008;SHT30;76587;41.936;25.550;2024-03-08T12:48:43;10.89;64.29
86008;SHT30;76587;41.936;25.550;2024-03-08T12:51:13;10.78;64.93
86008;SHT30;76587;41.936;25.550;2024-03-08T12:53:38;10.75;65.43
86008;SHT30;76587;41.936;25.550;2024-03-08T12:56:06;10.61;65.01
86008;SHT30;76587;41.936;25.550;2024-03-08T12:58:34;10.57;65.02
86008;SHT30;76587;41.936;25.550;2024-03-08T13:01:02;10.51;66.35
86008;SHT30;76587;41.936;25.550;2024-03-08T13:03:30;10.54;67.34
86008;SHT30;76587;41.936;25.550;2024-03-08T13:05:56;10.74;64.07
86008;SHT30;76587;41.936;25.550;2024-03-08T13:08:22;10.85;64.88
86008;SHT30;76587;41.936;25.550;2024-03-08T13:10:50;10.95;63.48
86008;SHT30;76587;41.936;25.550;2024-03-08T13:13:16;11.14;61.65
86008;SHT30;76587;41.936;25.550;2024-03-08T13:15:43;11.22;60.85
86008;SHT30;76587;41.936;25.550;2024-03-08T13:18:08;11.22;61.37
86008;SHT30;76587;41.936;25.550;2024-03-08T13:20:35;11.18;62.65
86008;SHT30;76587;41.936;25.550;2024-03-08T13:23:04;11.15;64.03
86008;SHT30;76587;41.936;25.550;2024-03-08T13:25:30;11.21;63.95
86008;SHT30;76587;41.936;25.550;2024-03-08T13:27:56;11.23;63.54
86008;SHT30;76587;41.936;25.550;2024-03-08T13:30:24;11.33;62.89
86008;SHT30;76587;41.936;25.550;2024-03-08T13:32:52;11.36;63.06
86008;SHT30;76587;41.936;25.550;2024-03-08T13:35:18;11.52;63.10
86008;SHT30;76587;41.936;25.550;2024-03-08T13:37:50;11.55;62.02
86008;SHT30;76587;41.936;25.550;2024-03-08T13:40:17;11.65;59.86
86008;SHT30;76587;41.936;25.550;2024-03-08T13:42:46;11.66;60.76
86008;SHT30;76587;41.936;25.550;2024-03-08T13:45:12;11.36;62.41
86008;SHT30;76587;41.936;25.550;2024-03-08T13:47:40;11.39;60.94
86008;SHT30;76587;41.936;25.550;2024-03-08T13:50:07;11.42;60.08
86008;SHT30;76587;41.936;25.550;2024-03-08T13:52:37;11.23;61.08
86008;SHT30;76587;41.936;25.550;2024-03-08T13:55:06;11.25;62.25
86008;SHT30;76587;41.936;25.550;2024-03-08T13:57:32;11.42;60.44
86008;SHT30;76587;41.936;25.550;2024-03-08T13:59:58;11.38;60.78
86008;SHT30;76587;41.936;25.550;2024-03-08T14:02:25;11.42;59.78
86008;SHT30;76587;41.936;25.550;2024-03-08T14:04:56;11.25;60.20
86008;SHT30;76587;41.936;25.550;2024-03-08T14:07:22;11.21;60.59
86008;SHT30;76587;41.936;25.550;2024-03-08T14:09:49;11.26;60.45
86008;SHT30;76587;41.936;25.550;2024-03-08T14:12:15;11.29;60.22
86008;SHT30;76587;41.936;25.550;2024-03-08T14:14:42;11.43;58.94
86008;SHT30;76587;41.936;25.550;2024-03-08T14:17:09;11.35;59.34
86008;SHT30;76587;41.936;25.550;2024-03-08T14:19:36;11.36;59.13
86008;SHT30;76587;41.936;25.550;2024-03-08T14:22:02;11.39;59.58
86008;SHT30;76587;41.936;25.550;2024-03-08T14:24:32;11.29;59.30
86008;SHT30;76587;41.936;25.550;2024-03-08T14:27:01;11.21;60.23
86008;SHT30;76587;41.936;25.550;2024-03-08T14:29:28;10.99;59.73
86008;SHT30;76587;41.936;25.550;2024-03-08T14:31:56;10.84;61.02
86008;SHT30;76587;41.936;25.550;2024-03-08T14:34:27;10.79;61.54
86008;SHT30;76587;41.936;25.550;2024-03-08T14:36:54;10.68;63.71
86008;SHT30;76587;41.936;25.550;2024-03-08T14:39:20;10.74;62.21
86008;SHT30;76587;41.936;25.550;2024-03-08T14:41:50;10.69;61.56
86008;SHT30;76587;41.936;25.550;2024-03-08T14:44:19;10.67;60.97
86008;SHT30;76587;41.936;25.550;2024-03-08T14:46:45;10.60;60.18
86008;SHT30;76587;41.936;25.550;2024-03-08T14:49:11;10.55;59.51
86008;SHT30;76587;41.936;25.550;2024-03-08T14:51:37;10.41;61.34
86008;SHT30;76587;41.936;25.550;2024-03-08T14:54:02;10.43;60.74
86008;SHT30;76587;41.936;25.550;2024-03-08T14:56:32;10.25;60.54
86008;SHT30;76587;41.936;25.550;2024-03-08T14:58:57;10.21;60.80
86008;SHT30;76587;41.936;25.550;2024-03-08T15:01:24;10.13;61.62
86008;SHT30;76587;41.936;25.550;2024-03-08T15:03:53;10.14;60.98
86008;SHT30;76587;41.936;25.550;2024-03-08T15:06:20;10.10;61.14
86008;SHT30;76587;41.936;25.550;2024-03-08T15:08:46;10.07;61.91
86008;SHT30;76587;41.936;25.550;2024-03-08T15:11:12;10.13;61.81
86008;SHT30;76587;41.936;25.550;2024-03-08T15:13:47;10.06;63.32
86008;SHT30;76587;41.936;25.550;2024-03-08T15:16:16;10.10;61.75
86008;SHT30;76587;41.936;25.550;2024-03-08T15:18:43;10.11;62.12
86008;SHT30;76587;41.936;25.550;2024-03-08T15:21:14;9.99;63.00
86008;SHT30;76587;41.936;25.550;2024-03-08T15:23:46;9.91;63.24
86008;SHT30;76587;41.936;25.550;2024-03-08T15:26:17;9.89;62.61
86008;SHT30;76587;41.936;25.550;2024-03-08T15:28:43;9.85;63.26
86008;SHT30;76587;41.936;25.550;2024-03-08T15:31:10;9.85;63.61
86008;SHT30;76587;41.936;25.550;2024-03-08T15:33:39;9.82;63.71
86008;SHT30;76587;41.936;25.550;2024-03-08T15:36:13;9.76;63.80